Relevés horaires Matro (Suisse)


Relevés horaires à Matro - Mardi 07 Oct. 2014
Heure UTC1 Température [°C] Vent [km/h] Hum. [%] Pres.4 [hPa] Visi. [Km] Nébu. [octa] Préc.5 [mm] Cond.
2m. Res. Ros. Dir.2 Vit. Moy. Raf.3
23:00 4.5 -0.7 4.4 SSE 31.5 35.2 42.6 99 850(0.5/3h) -- -- -- --
22:00 4.1 -1.4 4.1 SSE 33.3 35.2 44.4 100 850(0.5/3h) -- -- -- --
21:00 4.1 -1.6 4.1 SSE 35.2 38.9 48.2 100 850(0.5/3h) -- -- -- --
20:00 4.3 -1.3 4.3 SSE 35.2 37.0 44.4 100 850(0.7/3h) -- -- -- --
19:00 4.3 -1 4.3 SE 31.5 31.5 38.9 100 850(1.0/3h) -- -- -- --
18:00 4.2 -1.1 4.1 SSE 31.5 37.0 46.3 99 850(0.8/3h) -- -- -- --
17:00 4.0 -1.5 4.0 SSE 33.3 35.2 44.4 100 850(0.2/3h) -- -- -- --
16:00 3.8 -2.1 3.8 SSE 37.0 37.0 46.3 100 850(-0.1/3h) -- -- -- --
15:00 3.8 -2 3.8 SE 35.2 35.2 42.6 100 850(0.1/3h) -- -- -- --
14:00 3.5 -2 3.5 SE 31.5 31.5 40.7 100 850(0.0/3h) -- -- -- --
13:00 3.3 -1.8 3.3 SSE 25.9 35.2 42.6 100 850(0.2/3h) -- -- -- --
12:00 3.2 -2.6 3.2 SE 33.3 42.6 55.6 100 850(0.5/3h) -- -- -- --
11:00 3.1 -2.4 3.1 SE 29.6 35.2 44.4 100 850(1.0/3h) -- -- -- --
10:00 2.8 -3 2.8 SSE 31.5 37.0 44.4 100 850(1.1/3h) -- -- -- --
09:00 2.7 -3.8 2.7 SSE 40.7 42.6 55.6 100 850(1.0/3h) -- -- -- --
08:00 2.6 -4 2.6 SSE 40.7 40.7 51.9 100 850(0.7/3h) -- -- -- --
07:00 2.5 -3.7 2.5 SE 35.2 37.0 44.4 100 850(0.5/3h) -- -- -- --
06:00 2.3 -3.8 2.3 SSE 33.3 40.7 48.2 100 850(0.1/3h) -- -- -- --
05:00 2.2 -4.2 2.2 SE 37.0 35.2 40.7 100 850(0.0/3h) -- -- -- --
04:00 2.0 -4 2.0 SSE 31.5 33.3 42.6 100 850(-0.5/3h) -- -- -- --
03:00 1.8 -4.4 1.7 SSE 33.3 35.2 44.4 99 850(-0.5/3h) -- -- -- --
02:00 1.9 -4.5 1.9 SE 35.2 35.2 42.6 100 850(-0.7/3h) -- -- -- --
01:00 1.9 -4.3 1.5 SSE 33.3 35.2 44.4 97 850(-0.4/3h) -- -- -- --
00:00 1.9 -4.5 1.6 SE 35.2 35.2 40.7 98 850(-0.4/3h) -- -- -- --

1 Coordinated Universal Time. Actuellement il est 16:00 locale et 14:00 UTC.

2 Le vent souffle depuis la direction indiquée vers la direction oposée.

3 Les rafales max. sont disponible 40 min après l'heure du relevé.

4 Pour les stations d'altitude (plus de 600m) le géopotentiel du niveau le plus proche de la pression obligatoire est indiqué.

5 Les stations disposant d'un diffuseur peuvent indiquer "trace". Cela signifie que des précipitations ont touchés le sol mais que la quantité est inférieure à 0.1 mm.

Copyright

Les données affichées sur cette page sont la propriété exclusive de Météo Suisse.

Récapitulatif de la journée
Température [°C] Vent [km/h] Ensoleillement4 [h] Precipitations totale5 [mm] Pression [Hpa]
Min1 Max.2 Moy.3 Max. Min Max.
1.7 4.1 36.4 55.6 0 h 0 min 0 850.0 850.0

1 Température minimale relevée entre 18:00 UTC la veille et 18:00 UTC le jour donné.

2 Température maximale relevée entre 06:00 UTC le jour donné et 06:00 UTC le lendemain.

3 Vent moyen de la journée basé sur les relevés horaires.

4 Ensoleillement en heures relevé entre 06:00 UTC la veille et 06:00 UTC le jour donné.

5 Précipitations totales tombées entre 06:00 UTC la jour donné et 06:00 UTC le lendemain.

Graphiques horaires